Time;durP1;ratioP1;P1;durP2;ratioP2;P2;SDS_P1;SDS_P2;PMS_P1;PMS_P2;Temp;Humidity;BMP_temperature;BMP_pressure;BME280_temperature;BME280_humidity;BME280_pressure;Samples;Min_cycle;Max_cycle;Signal;HPM_P1;HPM_P2
2022/04/03 00:00:40;;;;;;;5.50;3.00;;;;;;;;;;5045996;28;20565;-65
2022/04/03 00:03:08;;;;;;;2.80;2.08;;;;;;;;;;5046575;28;20041;-65
2022/04/03 00:05:38;;;;;;;3.50;2.30;;;;;;;;;;5047323;28;20071;-65
2022/04/03 00:08:04;;;;;;;4.68;2.83;;;;;;;;;;5047401;28;20032;-65
2022/04/03 00:10:30;;;;;;;4.00;2.10;;;;;;;;;;5046253;28;20441;-65
2022/04/03 00:12:56;;;;;;;7.45;3.03;;;;;;;;;;5047038;28;20024;-66
2022/04/03 00:15:22;;;;;;;5.13;3.25;;;;;;;;;;5045937;28;20487;-66
2022/04/03 00:17:48;;;;;;;8.05;2.70;;;;;;;;;;5044985;28;20032;-65
2022/04/03 00:20:16;;;;;;;11.70;3.58;;;;;;;;;;5044907;28;20025;-66
2022/04/03 00:22:47;;;;;;;4.45;3.65;;;;;;;;;;5046179;28;20143;-64
2022/04/03 00:25:13;;;;;;;5.93;3.28;;;;;;;;;;5047526;28;20497;-65
2022/04/03 00:27:39;;;;;;;3.53;3.22;;;;;;;;;;5045807;28;20039;-67
2022/04/03 00:30:06;;;;;;;8.10;3.25;;;;;;;;;;5046102;28;20502;-65
2022/04/03 00:32:32;;;;;;;6.28;2.78;;;;;;;;;;5045249;28;20614;-67
2022/04/03 00:34:58;;;;;;;3.72;3.03;;;;;;;;;;5045687;28;20087;-65
2022/04/03 00:37:24;;;;;;;3.58;2.55;;;;;;;;;;5047181;28;20032;-66
2022/04/03 00:39:50;;;;;;;3.92;2.22;;;;;;;;;;5044427;28;20778;-66
2022/04/03 00:42:19;;;;;;;4.07;2.85;;;;;;;;;;5045259;28;20021;-65
2022/04/03 00:44:45;;;;;;;6.65;2.60;;;;;;;;;;5044882;28;20227;-65
2022/04/03 00:47:15;;;;;;;9.13;3.17;;;;;;;;;;5046573;28;20040;-67
2022/04/03 00:49:41;;;;;;;4.32;3.35;;;;;;;;;;5045612;28;20434;-65
2022/04/03 00:52:08;;;;;;;3.70;2.47;;;;;;;;;;5046377;28;20132;-65
2022/04/03 00:54:34;;;;;;;10.73;3.10;;;;;;;;;;5044764;28;20549;-65
2022/04/03 00:57:00;;;;;;;9.35;3.47;;;;;;;;;;5045329;28;20021;-66
2022/04/03 00:59:26;;;;;;;4.30;2.28;;;;;;;;;;5045084;28;20024;-66
2022/04/03 01:01:52;;;;;;;3.88;3.40;;;2.60;99.90;;;;;;5044410;28;20047;-65
2022/04/03 01:04:18;;;;;;;5.10;1.45;;;;;;;;;;5047002;28;20651;-66
2022/04/03 01:06:44;;;;;;;3.88;2.42;;;;;;;;;;5045561;28;20033;-65
2022/04/03 01:09:10;;;;;;;5.47;2.50;;;;;;;;;;5045299;28;20527;-66
2022/04/03 01:11:36;;;;;;;7.82;3.42;;;;;;;;;;5046906;28;20053;-67
2022/04/03 01:14:03;;;;;;;5.37;2.47;;;;;;;;;;5044641;28;20366;-65
2022/04/03 01:16:29;;;;;;;2.47;1.90;;;;;;;;;;5046546;28;20718;-65
2022/04/03 01:18:55;;;;;;;6.70;2.10;;;;;;;;;;5045494;28;20040;-64
2022/04/03 01:21:21;;;;;;;11.68;4.78;;;;;;;;;;5044927;28;20025;-64
2022/04/03 01:23:47;;;;;;;3.75;2.63;;;;;;;;;;5043601;28;20037;-66
2022/04/03 01:26:15;;;;;;;4.50;2.40;;;;;;;;;;5045458;28;20041;-66
2022/04/03 01:28:41;;;;;;;3.28;2.08;;;;;;;;;;5044321;28;20025;-66
2022/04/03 01:31:08;;;;;;;5.82;2.08;;;2.50;99.90;;;;;;5046393;28;20515;-66
2022/04/03 01:33:34;;;;;;;4.93;2.63;;;;;;;;;;5044426;28;20025;-65
2022/04/03 01:36:00;;;;;;;5.82;2.67;;;;;;;;;;5045393;28;20416;-65
2022/04/03 01:38:26;;;;;;;4.43;2.63;;;;;;;;;;5045389;28;20205;-65
2022/04/03 01:40:52;;;;;;;4.25;2.92;;;;;;;;;;5044980;28;20638;-66
2022/04/03 01:43:18;;;;;;;7.13;3.00;;;;;;;;;;5045109;28;21155;-66
2022/04/03 01:45:44;;;;;;;5.22;2.50;;;;;;;;;;5045452;28;20050;-65
2022/04/03 01:48:10;;;;;;;5.63;3.28;;;;;;;;;;5044578;28;20087;-65
2022/04/03 01:50:36;;;;;;;8.57;3.10;;;;;;;;;;5045041;28;20040;-65
2022/04/03 01:53:03;;;;;;;2.97;1.83;;;;;;;;;;5044721;28;20031;-65
2022/04/03 01:55:29;;;;;;;4.70;2.20;;;;;;;;;;5044236;28;20064;-65
2022/04/03 01:57:55;;;;;;;3.75;2.72;;;;;;;;;;5046135;28;20017;-64
2022/04/03 02:00:22;;;;;;;6.22;3.40;;;;;;;;;;5043891;28;20020;-66
2022/04/03 02:02:50;;;;;;;5.40;2.20;;;;;;;;;;5044198;28;20025;-65
2022/04/03 02:05:16;;;;;;;3.70;2.47;;;;;;;;;;5045273;28;20097;-66
2022/04/03 02:07:42;;;;;;;3.30;2.03;;;;;;;;;;5044930;28;20448;-66
2022/04/03 02:10:09;;;;;;;4.30;2.72;;;2.40;92.80;;;;;;5045720;28;20116;-66
2022/04/03 02:12:37;;;;;;;5.35;2.08;;;;;;;;;;5044300;28;20029;-66
2022/04/03 02:15:05;;;;;;;3.38;2.78;;;2.40;96.30;;;;;;5044297;28;20493;-66
2022/04/03 02:17:31;;;;;;;4.50;1.95;;;;;;;;;;5044671;28;20053;-66
2022/04/03 02:19:57;;;;;;;6.25;1.90;;;;;;;;;;5045141;28;20043;-66
2022/04/03 02:22:23;;;;;;;3.13;2.75;;;;;;;;;;5045397;28;20119;-65
2022/04/03 02:24:49;;;;;;;5.90;2.00;;;;;;;;;;5044548;28;20048;-65
2022/04/03 02:27:15;;;;;;;2.15;1.60;;;;;;;;;;5044290;28;20603;-66
2022/04/03 02:29:41;;;;;;;4.60;2.58;;;;;;;;;;5043978;28;20029;-65
2022/04/03 02:32:08;;;;;;;8.13;2.70;;;;;;;;;;5045084;28;22589;-66
2022/04/03 02:34:34;;;;;;;4.57;2.20;;;;;;;;;;5044422;28;20036;-66
2022/04/03 02:37:00;;;;;;;6.07;2.50;;;;;;;;;;5046707;28;20084;-66
2022/04/03 02:39:26;;;;;;;4.43;2.40;;;;;;;;;;5047557;28;20495;-66
2022/04/03 02:41:52;;;;;;;7.35;3.17;;;;;;;;;;5046910;28;20061;-66
2022/04/03 02:44:18;;;;;;;13.15;3.60;;;2.30;99.90;;;;;;5047726;28;20043;-66
2022/04/03 02:46:44;;;;;;;5.15;3.42;;;;;;;;;;5048322;28;20045;-64
2022/04/03 02:49:10;;;;;;;3.05;2.47;;;;;;;;;;5046576;28;20033;-66
2022/04/03 02:51:37;;;;;;;6.68;2.60;;;;;;;;;;5048600;28;20071;-65
2022/04/03 02:54:03;;;;;;;2.37;2.17;;;;;;;;;;5046150;28;20517;-66
2022/04/03 02:56:29;;;;;;;2.85;2.03;;;;;;;;;;5049081;28;20590;-66
2022/04/03 02:58:55;;;;;;;3.85;1.77;;;;;;;;;;5047519;28;20112;-65
2022/04/03 03:01:22;;;;;;;3.63;1.73;;;2.00;92.90;;;;;;5049478;28;20102;-66
2022/04/03 03:03:48;;;;;;;3.97;2.00;;;;;;;;;;5046869;28;20036;-65
2022/04/03 03:06:14;;;;;;;2.38;2.08;;;;;;;;;;5047634;28;20082;-66
2022/04/03 03:08:41;;;;;;;2.30;2.10;;;;;;;;;;5047453;28;20116;-66
2022/04/03 03:11:07;;;;;;;1.67;1.58;;;;;;;;;;5048354;28;20131;-64
2022/04/03 03:13:33;;;;;;;9.02;2.72;;;;;;;;;;5048254;28;20582;-65
2022/04/03 03:15:59;;;;;;;4.65;1.92;;;;;;;;;;5048668;28;20024;-66
2022/04/03 03:18:25;;;;;;;4.57;2.83;;;;;;;;;;5046509;28;20025;-66
2022/04/03 03:20:51;;;;;;;10.98;2.50;;;;;;;;;;5047915;28;20040;-64
2022/04/03 03:23:17;;;;;;;2.20;1.98;;;;;;;;;;5046962;28;20029;-64
2022/04/03 03:25:45;;;;;;;4.10;1.88;;;;;;;;;;5047095;28;20028;-66
2022/04/03 03:28:11;;;;;;;3.40;1.45;;;;;;;;;;5048181;28;20637;-65
2022/04/03 03:30:37;;;;;;;3.20;1.75;;;2.30;99.90;;;;;;5047847;28;20031;-65
2022/04/03 03:33:03;;;;;;;4.72;2.83;;;;;;;;;;5046368;28;20028;-65
2022/04/03 03:35:30;;;;;;;3.35;2.45;;;;;;;;;;5047092;28;20037;-65
2022/04/03 03:37:56;;;;;;;3.28;1.90;;;;;;;;;;5046901;28;20020;-65
2022/04/03 03:40:23;;;;;;;3.05;1.88;;;;;;;;;;5047797;28;20060;-66
2022/04/03 03:42:49;;;;;;;4.18;2.40;;;;;;;;;;5046939;28;20028;-64
2022/04/03 03:45:16;;;;;;;2.93;2.20;;;;;;;;;;5046765;28;20041;-66
2022/04/03 03:47:45;;;;;;;3.53;2.15;;;;;;;;;;5045725;28;20024;-67
2022/04/03 03:50:13;;;;;;;4.72;3.13;;;;;;;;;;5046633;28;20124;-66
2022/04/03 03:52:39;;;;;;;7.40;2.58;;;;;;;;;;5046426;28;20021;-65
2022/04/03 03:55:06;;;;;;;7.53;3.03;;;;;;;;;;5048717;28;20116;-66
2022/04/03 03:57:32;;;;;;;7.18;2.67;;;;;;;;;;5046241;28;20079;-66
2022/04/03 03:59:58;;;;;;;11.05;3.17;;;;;;;;;;5046515;28;20041;-65
2022/04/03 04:02:24;;;;;;;4.95;2.70;;;;;;;;;;5046303;28;20047;-67
2022/04/03 04:04:50;;;;;;;6.70;2.42;;;;;;;;;;5047364;28;20132;-65
2022/04/03 04:07:16;;;;;;;7.53;3.35;;;;;;;;;;5047760;28;20031;-65
2022/04/03 04:09:42;;;;;;;3.70;2.45;;;;;;;;;;5046380;28;20033;-65
2022/04/03 04:12:09;;;;;;;5.05;3.17;;;;;;;;;;5046124;28;20116;-65
2022/04/03 04:14:36;;;;;;;3.03;1.80;;;;;;;;;;5045907;28;20112;-66
2022/04/03 04:17:02;;;;;;;3.75;1.98;;;;;;;;;;5046243;28;20032;-64
2022/04/03 04:19:28;;;;;;;6.47;4.53;;;;;;;;;;5045769;28;20021;-64
2022/04/03 04:21:54;;;;;;;2.27;1.47;;;;;;;;;;5047349;28;20033;-65
2022/04/03 04:24:20;;;;;;;2.60;1.80;;;;;;;;;;5045255;28;20110;-65
2022/04/03 04:26:46;;;;;;;5.75;3.45;;;;;;;;;;5045776;28;20036;-65
2022/04/03 04:29:12;;;;;;;3.35;2.25;;;;;;;;;;5046615;28;20449;-66
2022/04/03 04:31:38;;;;;;;5.70;3.05;;;;;;;;;;5045928;28;20078;-65
2022/04/03 04:34:04;;;;;;;8.98;3.10;;;;;;;;;;5047408;28;20048;-67
2022/04/03 04:36:30;;;;;;;6.70;2.28;;;;;;;;;;5046583;28;20033;-66
2022/04/03 04:38:57;;;;;;;6.18;3.53;;;;;;;;;;5046099;28;20064;-66
2022/04/03 04:41:23;;;;;;;5.97;3.33;;;;;;;;;;5045003;28;20027;-66
2022/04/03 04:43:50;;;;;;;3.70;2.85;;;;;;;;;;5046170;28;20029;-64
2022/04/03 04:46:16;;;;;;;5.30;2.17;;;;;;;;;;5047475;28;20033;-63
2022/04/03 04:48:42;;;;;;;4.38;3.10;;;;;;;;;;5044960;28;20485;-65
2022/04/03 04:51:09;;;;;;;5.30;3.13;;;;;;;;;;5045775;28;20025;-65
2022/04/03 04:53:35;;;;;;;5.50;3.15;;;;;;;;;;5044573;28;20055;-65
2022/04/03 04:56:01;;;;;;;6.75;3.72;;;;;;;;;;5046175;28;20044;-65
2022/04/03 04:58:28;;;;;;;5.95;2.15;;;;;;;;;;5046157;28;20025;-65
2022/04/03 05:00:54;;;;;;;8.27;3.40;;;;;;;;;;5045554;28;20716;-66
2022/04/03 05:03:20;;;;;;;9.93;4.18;;;;;;;;;;5045183;28;20025;-66
2022/04/03 05:05:46;;;;;;;3.47;3.05;;;;;;;;;;5044192;28;20040;-67
2022/04/03 05:08:13;;;;;;;7.05;3.13;;;;;;;;;;5045576;28;20285;-67
2022/04/03 05:10:39;;;;;;;5.65;3.78;;;;;;;;;;5046318;28;20454;-65
2022/04/03 05:13:09;;;;;;;5.85;3.05;;;;;;;;;;5045900;28;20041;-66
2022/04/03 05:15:35;;;;;;;3.85;3.15;;;;;;;;;;5044930;28;20053;-66
2022/04/03 05:18:01;;;;;;;4.90;2.67;;;;;;;;;;5043908;28;20078;-64
2022/04/03 05:20:27;;;;;;;6.70;3.72;;;;;;;;;;5046010;28;20021;-65
2022/04/03 05:22:53;;;;;;;6.45;2.95;;;;;;;;;;5046147;28;20039;-65
2022/04/03 05:25:19;;;;;;;7.00;3.72;;;;;;;;;;5045592;28;20044;-65
2022/04/03 05:27:45;;;;;;;7.70;3.28;;;2.10;97.70;;;;;;5043875;28;20371;-65
2022/04/03 05:30:12;;;;;;;14.15;3.80;;;;;;;;;;5044389;28;20032;-66
2022/04/03 05:32:38;;;;;;;6.32;3.58;;;;;;;;;;5044378;28;20025;-66
2022/04/03 05:35:06;;;;;;;10.27;4.60;;;;;;;;;;5044950;28;20029;-65
2022/04/03 05:37:32;;;;;;;;;;;;;;;;;;5045847;28;20029;-66
2022/04/03 05:39:58;;;;;;;4.90;2.60;;;;;;;;;;5045024;28;19958;-66
2022/04/03 05:42:24;;;;;;;8.00;3.65;;;;;;;;;;5044150;28;20056;-65
2022/04/03 05:44:50;;;;;;;5.85;3.00;;;2.20;99.90;;;;;;5044303;28;20068;-65
2022/04/03 05:47:17;;;;;;;6.20;3.20;;;;;;;;;;5044784;28;20025;-66
2022/04/03 05:49:43;;;;;;;6.03;2.88;;;;;;;;;;5044293;28;20100;-66
2022/04/03 05:52:09;;;;;;;7.20;4.13;;;;;;;;;;5045091;28;20514;-66
2022/04/03 05:54:35;;;;;;;8.88;5.10;;;;;;;;;;5043948;28;20056;-66
2022/04/03 05:57:01;;;;;;;5.35;3.55;;;;;;;;;;5042971;28;20112;-65
2022/04/03 05:59:27;;;;;;;7.00;3.25;;;;;;;;;;5045038;28;20724;-66
2022/04/03 06:01:53;;;;;;;5.07;3.33;;;;;;;;;;5044842;28;20130;-66
2022/04/03 06:04:19;;;;;;;3.53;2.67;;;;;;;;;;5045492;28;20036;-64
2022/04/03 06:06:45;;;;;;;4.63;3.53;;;;;;;;;;5043842;28;20714;-64
2022/04/03 06:09:11;;;;;;;5.72;4.50;;;;;;;;;;5042250;28;20044;-65
2022/04/03 06:11:37;;;;;;;2.92;2.70;;;;;;;;;;5047445;28;20037;-66
2022/04/03 06:14:03;;;;;;;3.97;3.03;;;;;;;;;;5048230;28;20021;-65
2022/04/03 06:16:29;;;;;;;2.30;1.75;;;;;;;;;;5048495;28;20626;-66
2022/04/03 06:18:55;;;;;;;5.93;3.67;;;;;;;;;;5048844;28;20158;-66
2022/04/03 06:21:21;;;;;;;5.75;3.47;;;;;;;;;;5048362;28;20051;-65
2022/04/03 06:23:47;;;;;;;5.03;3.20;;;;;;;;;;5047746;28;20452;-67
2022/04/03 06:26:13;;;;;;;6.50;3.55;;;;;;;;;;5048479;28;20036;-66
2022/04/03 06:28:39;;;;;;;6.10;3.78;;;;;;;;;;5048096;28;20056;-66
2022/04/03 06:31:05;;;;;;;5.45;3.78;;;2.40;94.70;;;;;;5047295;28;20039;-66
2022/04/03 06:33:31;;;;;;;7.65;2.20;;;;;;;;;;5046799;28;20024;-65
2022/04/03 06:35:57;;;;;;;6.55;2.97;;;2.20;99.90;;;;;;5047581;28;20557;-65
2022/04/03 06:38:23;;;;;;;10.00;4.47;;;;;;;;;;5046758;28;20025;-66
2022/04/03 06:40:50;;;;;;;5.03;2.83;;;;;;;;;;5047746;28;20025;-65
2022/04/03 06:43:18;;;;;;;6.95;3.53;;;2.60;92.90;;;;;;5048960;28;20087;-67
2022/04/03 06:45:44;;;;;;;7.55;3.28;;;;;;;;;;5046817;28;20048;-66
2022/04/03 06:48:10;;;;;;;7.18;3.25;;;;;;;;;;5047551;28;20033;-65
2022/04/03 06:50:36;;;;;;;6.10;3.25;;;;;;;;;;5047033;28;20087;-66
2022/04/03 06:53:04;;;;;;;3.25;2.20;;;;;;;;;;5047133;28;20083;-66
2022/04/03 06:55:29;;;;;;;;;;;;;;;;;;5047211;28;20044;-66
2022/04/03 06:57:56;;;;;;;7.43;3.80;;;;;;;;;;5046328;28;20408;-66
2022/04/03 07:00:22;;;;;;;5.73;3.23;;;;;;;;;;5046631;28;20047;-66
2022/04/03 07:02:49;;;;;;;4.18;3.00;;;;;;;;;;5044392;28;20264;-67
2022/04/03 07:05:15;;;;;;;5.75;2.42;;;;;;;;;;5046744;28;20062;-66
2022/04/03 07:07:41;;;;;;;5.03;3.13;;;;;;;;;;5046125;28;20035;-66
2022/04/03 07:10:09;;;;;;;5.25;2.45;;;;;;;;;;5047104;28;20037;-65
2022/04/03 07:12:35;;;;;;;7.03;3.88;;;;;;;;;;5046385;28;20645;-65
2022/04/03 07:15:01;;;;;;;5.78;3.03;;;;;;;;;;5048750;28;20033;-66
2022/04/03 07:17:27;;;;;;;5.55;3.45;;;;;;;;;;5048476;28;20036;-66
2022/04/03 07:19:53;;;;;;;4.47;2.60;;;;;;;;;;5047990;28;20592;-66
2022/04/03 07:22:19;;;;;;;5.05;3.45;;;2.90;99.90;;;;;;5046065;28;20083;-66
2022/04/03 07:24:45;;;;;;;2.00;1.70;;;2.40;97.30;;;;;;5047203;28;20037;-66
2022/04/03 07:27:11;;;;;;;4.57;2.58;;;;;;;;;;5048252;28;20043;-66
2022/04/03 07:29:37;;;;;;;5.88;3.08;;;;;;;;;;5048948;28;20025;-66
2022/04/03 07:32:04;;;;;;;7.15;3.35;;;;;;;;;;5048347;28;20399;-65
2022/04/03 07:34:30;;;;;;;7.90;3.83;;;;;;;;;;5047966;28;20423;-65
2022/04/03 07:36:56;;;;;;;6.95;3.10;;;;;;;;;;5048457;28;20017;-64
2022/04/03 07:39:23;;;;;;;5.32;3.45;;;;;;;;;;5048727;28;20108;-66
2022/04/03 07:41:49;;;;;;;5.65;3.58;;;;;;;;;;5050086;28;20591;-66
2022/04/03 07:44:15;;;;;;;6.82;2.50;;;;;;;;;;5045642;28;20029;-65
2022/04/03 07:46:41;;;;;;;3.28;2.28;;;;;;;;;;5047816;28;20025;-66
2022/04/03 07:49:07;;;;;;;7.88;3.08;;;2.40;99.50;;;;;;5049101;28;20482;-66
2022/04/03 07:51:34;;;;;;;4.25;3.03;;;;;;;;;;5045139;28;20023;-65
2022/04/03 07:54:00;;;;;;;6.18;3.47;;;;;;;;;;5045701;28;20540;-66
2022/04/03 07:56:26;;;;;;;4.40;3.17;;;;;;;;;;5045790;28;20082;-65
2022/04/03 07:58:52;;;;;;;8.43;3.55;;;;;;;;;;5046762;28;20036;-64
2022/04/03 08:01:18;;;;;;;5.80;3.10;;;;;;;;;;5046374;28;20049;-65
2022/04/03 08:03:44;;;;;;;5.45;2.63;;;;;;;;;;5046882;28;20551;-64
2022/04/03 08:06:09;;;;;;;5.78;2.58;;;2.70;99.90;;;;;;5041062;28;20029;-68
2022/04/03 08:08:35;;;;;;;3.75;3.38;;;;;;;;;;5042797;28;20044;-69
2022/04/03 08:11:02;;;;;;;6.88;3.83;;;;;;;;;;5043764;28;20113;-66
2022/04/03 08:13:28;;;;;;;4.97;2.78;;;;;;;;;;5043676;28;20032;-69
2022/04/03 08:15:54;;;;;;;10.18;4.85;;;;;;;;;;5046231;28;20039;-67
2022/04/03 08:18:22;;;;;;;7.53;3.63;;;;;;;;;;5045053;28;20020;-68
2022/04/03 08:20:48;;;;;;;6.25;4.60;;;;;;;;;;5046236;28;20033;-67
2022/04/03 08:23:14;;;;;;;4.95;2.92;;;;;;;;;;5044984;28;20086;-67
2022/04/03 08:25:40;;;;;;;4.50;3.25;;;;;;;;;;5045101;28;20037;-66
2022/04/03 08:28:10;;;;;;;4.85;2.80;;;;;;;;;;5045764;28;20029;-66
2022/04/03 08:30:36;;;;;;;5.88;3.00;;;3.00;93.70;;;;;;5045644;28;20387;-67
2022/04/03 08:33:04;;;;;;;5.72;3.60;;;;;;;;;;5043809;28;20059;-67
2022/04/03 08:35:37;;;;;;;4.72;3.35;;;;;;;;;;5045295;28;20039;-66
2022/04/03 08:38:04;;;;;;;5.18;3.17;;;;;;;;;;5046760;28;20029;-66
2022/04/03 08:40:31;;;;;;;7.82;3.40;;;;;;;;;;5045222;28;20029;-67
2022/04/03 08:42:57;;;;;;;5.07;3.22;;;;;;;;;;5046960;28;20090;-66
2022/04/03 08:45:24;;;;;;;10.65;5.10;;;;;;;;;;5045428;28;20048;-66
2022/04/03 08:47:51;;;;;;;7.95;3.65;;;;;;;;;;5045418;28;20603;-67
2022/04/03 08:50:18;;;;;;;5.70;2.67;;;;;;;;;;5046222;28;20258;-67
2022/04/03 08:52:48;;;;;;;8.93;4.32;;;;;;;;;;5045876;28;20485;-67
2022/04/03 08:55:14;;;;;;;7.38;3.28;;;;;;;;;;5044863;28;20291;-67
2022/04/03 08:57:42;;;;;;;6.05;3.65;;;;;;;;;;5045048;28;20025;-66
2022/04/03 09:00:08;;;;;;;6.32;3.67;;;;;;;;;;5044485;28;20678;-67
2022/04/03 09:02:34;;;;;;;5.65;3.30;;;;;;;;;;5045239;28;20159;-67
2022/04/03 09:05:00;;;;;;;7.60;3.72;;;3.70;99.90;;;;;;5043447;28;20119;-64
2022/04/03 09:07:26;;;;;;;10.48;4.15;;;;;;;;;;5046331;28;20624;-66
2022/04/03 09:09:59;;;;;;;7.05;2.45;;;;;;;;;;5044779;28;20110;-67
2022/04/03 09:12:26;;;;;;;5.82;3.40;;;;;;;;;;5045310;28;20032;-67
2022/04/03 09:14:56;;;;;;;6.50;2.95;;;;;;;;;;5044638;28;20037;-65
2022/04/03 09:17:40;;;;;;;6.82;3.03;;;;;;;;;;5045774;28;20028;-67
2022/04/03 09:20:14;;;;;;;6.75;3.80;;;3.50;90.80;;;;;;5045648;28;20036;-65
2022/04/03 09:22:44;;;;;;;5.30;2.92;;;3.60;90.40;;;;;;5044692;28;20025;-67
2022/04/03 09:25:16;;;;;;;8.32;3.22;;;3.70;90.50;;;;;;5043141;28;20100;-68
2022/04/03 09:27:49;;;;;;;6.43;3.40;;;;;;;;;;5043065;28;20044;-66
2022/04/03 09:30:16;;;;;;;5.57;3.88;;;;;;;;;;5038580;28;20041;-67
2022/04/03 09:32:51;;;;;;;3.03;2.42;;;;;;;;;;5041291;28;20022;-66
2022/04/03 09:35:18;;;;;;;5.50;2.35;;;4.80;86.20;;;;;;5041985;28;20037;-69
2022/04/03 09:38:03;;;;;;;7.30;3.75;;;;;;;;;;5040118;28;20040;-70
2022/04/03 09:40:30;;;;;;;7.88;3.40;;;;;;;;;;5044224;28;20035;-71
2022/04/03 09:43:17;;;;;;;8.88;3.75;;;4.90;83.90;;;;;;5044748;28;20021;-81
2022/04/03 09:45:46;;;;;;;5.00;2.60;;;;;;;;;;5039307;28;20799;-74
2022/04/03 09:48:20;;;;;;;5.93;3.13;;;;;;;;;;5045092;28;20025;-71
2022/04/03 09:51:03;;;;;;;6.07;3.83;;;;;;;;;;5042387;28;20502;-74
2022/04/03 09:53:41;;;;;;;6.85;3.25;;;;;;;;;;5044650;28;20041;-75
2022/04/03 09:56:12;;;;;;;5.85;3.50;;;;;;;;;;5042953;28;20053;-76
2022/04/03 09:58:54;;;;;;;6.47;3.05;;;;;;;;;;5043374;28;20818;-76
2022/04/03 10:01:27;;;;;;;7.18;3.35;;;;;;;;;;5045376;28;20387;-76
2022/04/03 10:03:53;;;;;;;6.05;4.00;;;;;;;;;;5043350;28;20035;-76
2022/04/03 10:06:20;;;;;;;10.77;5.63;;;;;;;;;;5043226;28;20125;-75
2022/04/03 10:08:47;;;;;;;7.88;3.15;;;;;;;;;;5042751;28;20025;-75
2022/04/03 10:11:13;;;;;;;8.00;3.53;;;;;;;;;;5041935;28;20189;-76
2022/04/03 10:13:39;;;;;;;8.00;4.33;;;;;;;;;;5043461;28;20036;-76
2022/04/03 10:16:05;;;;;;;7.75;3.42;;;;;;;;;;5044578;28;20032;-76
2022/04/03 10:18:33;;;;;;;5.95;2.65;;;5.30;95.60;;;;;;5041442;28;20025;-76
2022/04/03 10:20:59;;;;;;;6.47;3.67;;;;;;;;;;5043072;28;20032;-76
2022/04/03 10:23:25;;;;;;;7.82;3.25;;;;;;;;;;5042522;28;20025;-76
2022/04/03 10:25:52;;;;;;;6.78;3.17;;;;;;;;;;5041417;28;20041;-76
2022/04/03 10:28:20;;;;;;;5.03;3.15;;;;;;;;;;5043271;28;20021;-75
2022/04/03 10:30:57;;;;;;;8.45;4.10;;;;;;;;;;5042080;28;20053;-76
2022/04/03 10:33:24;;;;;;;6.15;3.58;;;;;;;;;;5042832;28;20529;-76
2022/04/03 10:36:02;;;;;;;9.48;4.45;;;;;;;;;;5041515;28;20402;-76
2022/04/03 10:38:45;;;;;;;9.63;3.92;;;;;;;;;;5041528;28;20028;-76
2022/04/03 10:41:30;;;;;;;9.13;3.83;;;;;;;;;;5042050;28;20025;-76
2022/04/03 10:44:12;;;;;;;5.88;3.35;;;;;;;;;;5041976;28;20711;-75
2022/04/03 10:46:58;;;;;;;5.65;3.63;;;;;;;;;;5044093;28;20040;-75
2022/04/03 10:49:33;;;;;;;8.55;3.85;;;;;;;;;;5042811;28;20037;-76
2022/04/03 10:52:07;;;;;;;4.55;2.55;;;;;;;;;;5043081;28;20029;-76
2022/04/03 10:54:43;;;;;;;4.68;2.72;;;;;;;;;;5042253;28;20077;-76
2022/04/03 10:57:27;;;;;;;8.95;3.58;;;;;;;;;;5039871;28;20033;-76
2022/04/03 11:00:12;;;;;;;7.97;3.33;;;5.30;81.10;;;;;;5046497;28;20025;-76
2022/04/03 11:02:38;;;;;;;6.05;3.38;;;;;;;;;;5044506;28;20029;-75
2022/04/03 11:05:25;;;;;;;5.43;3.70;;;;;;;;;;5044959;28;20064;-76
2022/04/03 11:08:01;;;;;;;5.07;2.85;;;;;;;;;;5044256;28;20033;-76
2022/04/03 11:10:46;;;;;;;4.50;3.00;;;;;;;;;;5044264;28;20032;-74
2022/04/03 11:13:12;;;;;;;11.02;3.38;;;;;;;;;;5047850;28;20090;-69
2022/04/03 11:16:14;;;;;;;7.15;4.05;;;;;;;;;;5044122;28;20021;-68
2022/04/03 11:18:48;;;;;;;10.50;5.38;;;;;;;;;;5043726;28;20021;-69
2022/04/03 11:21:28;;;;;;;7.32;4.57;;;;;;;;;;5041495;28;20040;-68
2022/04/03 11:24:07;;;;;;;5.60;4.07;;;5.50;80.20;;;;;;5043874;28;20042;-68
2022/04/03 11:26:33;;;;;;;8.27;3.53;;;;;;;;;;5045594;28;20056;-70
2022/04/03 11:28:59;;;;;;;7.22;2.75;;;5.60;80.40;;;;;;5049822;28;20056;-69
2022/04/03 11:31:26;;;;;;;5.40;3.33;;;;;;;;;;5047663;28;20040;-69
2022/04/03 11:33:52;;;;;;;5.68;2.65;;;;;;;;;;5043246;28;20040;-69
2022/04/03 11:36:20;;;;;;;6.90;3.72;;;;;;;;;;5043288;28;20052;-70
2022/04/03 11:38:46;;;;;;;8.13;4.57;;;;;;;;;;5046884;28;20627;-71
2022/04/03 11:41:34;;;;;;;4.50;2.97;;;;;;;;;;5050067;28;20032;-70
2022/04/03 11:44:01;;;;;;;6.28;3.05;;;;;;;;;;5023609;28;20025;-70
2022/04/03 11:46:31;;;;;;;7.57;3.90;;;;;;;;;;5029978;28;20056;-69
2022/04/03 11:48:57;;;;;;;9.50;4.20;;;;;;;;;;5043750;28;21352;-71
2022/04/03 11:51:23;;;;;;;8.95;3.67;;;;;;;;;;5037298;28;20032;-70
2022/04/03 11:53:59;;;;;;;16.65;5.35;;;;;;;;;;5042163;28;20037;-70
2022/04/03 11:56:25;;;;;;;12.65;5.80;;;;;;;;;;5042317;28;20083;-70
2022/04/03 11:58:55;;;;;;;6.78;3.42;;;;;;;;;;5039934;28;20095;-72
2022/04/03 12:01:35;;;;;;;16.35;5.47;;;6.20;76.00;;;;;;5040912;28;20044;-71
2022/04/03 12:04:08;;;;;;;7.32;3.65;;;6.30;86.70;;;;;;5040166;28;20030;-74
2022/04/03 12:06:34;;;;;;;8.70;3.58;;;;;;;;;;5041097;28;20032;-72
2022/04/03 12:09:00;;;;;;;8.00;4.75;;;;;;;;;;5040929;28;20497;-70
2022/04/03 12:11:30;;;;;;;6.65;4.20;;;;;;;;;;5033591;28;20025;-69
2022/04/03 12:13:58;;;;;;;11.90;4.43;;;;;;;;;;5043905;28;20031;-68
2022/04/03 12:16:24;;;;;;;;;;;;;;;;;;5043647;28;20136;-68
2022/04/03 12:18:50;;;;;;;3.72;2.50;;;;;;;;;;5040482;28;20061;-73
2022/04/03 12:21:16;;;;;;;5.22;2.40;;;;;;;;;;5044857;28;20216;-72
2022/04/03 12:24:01;;;;;;;5.18;3.05;;;;;;;;;;5042749;28;20032;-71
2022/04/03 12:26:27;;;;;;;4.47;3.15;;;;;;;;;;5044745;28;20120;-65
2022/04/03 12:28:55;;;;;;;6.60;3.65;;;;;;;;;;5046543;28;20047;-67
2022/04/03 12:31:25;;;;;;;5.47;2.55;;;;;;;;;;5046514;28;20089;-66
2022/04/03 12:33:52;;;;;;;6.10;3.47;;;;;;;;;;5040419;28;20071;-66
2022/04/03 12:36:18;;;;;;;10.20;4.38;;;;;;;;;;5042646;28;20494;-66
2022/04/03 12:38:49;;;;;;;12.27;4.55;;;;;;;;;;5045062;28;20029;-66
2022/04/03 12:41:15;;;;;;;5.57;3.47;;;;;;;;;;5044899;28;20060;-66
2022/04/03 12:43:44;;;;;;;27.55;8.07;;;;;;;;;;5045886;28;20473;-67
2022/04/03 12:46:10;;;;;;;12.75;3.92;;;;;;;;;;5045642;28;20731;-66
2022/04/03 12:48:36;;;;;;;21.17;3.85;;;;;;;;;;5043348;28;20053;-69
2022/04/03 12:51:09;;;;;;;6.75;3.15;;;;;;;;;;5043624;28;20029;-66
2022/04/03 12:53:48;;;;;;;13.55;4.75;;;5.50;88.70;;;;;;5058663;28;20037;-67
2022/04/03 12:56:15;;;;;;;7.40;2.92;;;;;;;;;;5043452;28;20045;-67
2022/04/03 12:58:43;;;;;;;8.43;4.18;;;;;;;;;;5045540;28;20071;-67
2022/04/03 13:01:17;;;;;;;8.57;3.97;;;;;;;;;;5045961;28;20063;-67
2022/04/03 13:03:43;;;;;;;11.32;5.00;;;;;;;;;;5039176;28;20036;-66
2022/04/03 13:06:33;;;;;;;10.57;2.65;;;6.00;78.70;;;;;;5038191;28;20049;-67
2022/04/03 13:09:00;;;;;;;7.88;3.35;;;;;;;;;;5043431;28;20037;-66
2022/04/03 13:11:37;;;;;;;10.73;4.05;;;;;;;;;;5044844;28;20028;-66
2022/04/03 13:14:12;;;;;;;6.00;3.40;;;;;;;;;;5044031;28;20509;-67
2022/04/03 13:16:38;;;;;;;11.07;4.28;;;;;;;;;;5042516;28;20090;-68
2022/04/03 13:19:05;;;;;;;6.15;3.72;;;;;;;;;;5040852;28;20032;-66
2022/04/03 13:21:34;;;;;;;3.55;3.10;;;;;;;;;;5042902;28;20039;-68
2022/04/03 13:24:00;;;;;;;5.32;3.47;;;;;;;;;;5042211;28;20056;-68
2022/04/03 13:26:26;;;;;;;5.97;2.70;;;;;;;;;;5043900;28;20138;-68
2022/04/03 13:28:52;;;;;;;4.18;2.85;;;;;;;;;;5044569;28;21409;-67
2022/04/03 13:31:18;;;;;;;10.10;3.03;;;;;;;;;;5046130;28;20041;-67
2022/04/03 13:33:44;;;;;;;4.30;2.78;;;;;;;;;;5042959;28;20036;-66
2022/04/03 13:36:10;;;;;;;5.57;2.90;;;5.00;95.60;;;;;;5044372;28;20124;-66
2022/04/03 13:38:36;;;;;;;4.10;3.35;;;;;;;;;;5041623;28;20521;-66
2022/04/03 13:41:02;;;;;;;5.70;3.00;;;;;;;;;;5043195;28;20029;-67
2022/04/03 13:43:28;;;;;;;2.55;2.20;;;;;;;;;;5043869;28;20032;-67
2022/04/03 13:45:57;;;;;;;4.43;2.63;;;;;;;;;;5039905;28;20045;-68
2022/04/03 13:48:24;;;;;;;2.80;2.55;;;;;;;;;;5036582;28;20029;-68
2022/04/03 13:50:51;;;;;;;4.35;3.10;;;;;;;;;;5039056;28;20038;-67
2022/04/03 13:53:18;;;;;;;6.03;2.92;;;;;;;;;;5041240;28;20025;-68
2022/04/03 13:55:44;;;;;;;8.57;3.88;;;;;;;;;;5044253;28;20519;-67
2022/04/03 13:58:10;;;;;;;5.03;3.45;;;;;;;;;;5044244;28;20109;-67
2022/04/03 14:00:36;;;;;;;4.75;2.75;;;;;;;;;;5041904;28;20029;-68
2022/04/03 14:03:02;;;;;;;3.72;2.58;;;;;;;;;;5042568;28;20041;-67
2022/04/03 14:05:28;;;;;;;7.80;2.78;;;;;;;;;;5042242;28;20037;-67
2022/04/03 14:07:54;;;;;;;8.88;3.85;;;;;;;;;;5042830;28;20155;-68
2022/04/03 14:10:20;;;;;;;8.77;3.05;;;;;;;;;;5043970;28;20049;-66
2022/04/03 14:12:48;;;;;;;7.30;3.00;;;;;;;;;;5043467;28;20341;-66
2022/04/03 14:15:14;;;;;;;5.05;3.03;;;;;;;;;;5043142;28;20090;-68
2022/04/03 14:17:40;;;;;;;4.93;2.92;;;;;;;;;;5043719;28;20029;-68
2022/04/03 14:20:08;;;;;;;3.33;2.42;;;;;;;;;;5041910;28;20776;-67
2022/04/03 14:22:35;;;;;;;4.50;2.38;;;;;;;;;;5044246;28;20025;-68
2022/04/03 14:25:03;;;;;;;6.70;3.22;;;;;;;;;;5042633;28;20108;-68
2022/04/03 14:27:29;;;;;;;4.68;3.33;;;;;;;;;;5043409;28;20608;-68
2022/04/03 14:29:56;;;;;;;9.82;3.50;;;;;;;;;;5042191;28;20025;-68
2022/04/03 14:32:22;;;;;;;5.13;2.22;;;;;;;;;;5046673;28;20029;-67
2022/04/03 14:34:48;;;;;;;4.35;2.67;;;;;;;;;;5045674;28;20017;-67
2022/04/03 14:37:14;;;;;;;5.03;3.42;;;;;;;;;;5048638;28;20036;-67